sensor_id;sensor_type;location;lat;lon;timestamp;pressure;altitude;pressure_sealevel;temperature
22828;BMP180;11580;52.562;13.418;2023-05-06T00:01:20;100877.00;;;15.40
22828;BMP180;11580;52.562;13.418;2023-05-06T00:03:47;100881.00;;;15.30
22828;BMP180;11580;52.562;13.418;2023-05-06T00:06:14;100886.00;;;15.30
22828;BMP180;11580;52.562;13.418;2023-05-06T00:08:41;100887.00;;;15.20
22828;BMP180;11580;52.562;13.418;2023-05-06T00:11:10;100880.00;;;15.20
22828;BMP180;11580;52.562;13.418;2023-05-06T00:13:37;100885.00;;;15.10
22828;BMP180;11580;52.562;13.418;2023-05-06T00:16:05;100875.00;;;15.10
22828;BMP180;11580;52.562;13.418;2023-05-06T00:18:33;100875.00;;;15.00
22828;BMP180;11580;52.562;13.418;2023-05-06T00:21:00;100876.00;;;14.90
22828;BMP180;11580;52.562;13.418;2023-05-06T00:23:28;100875.00;;;14.90
22828;BMP180;11580;52.562;13.418;2023-05-06T00:25:55;100866.00;;;14.80
22828;BMP180;11580;52.562;13.418;2023-05-06T00:28:22;100872.00;;;14.80
22828;BMP180;11580;52.562;13.418;2023-05-06T00:30:49;100860.00;;;14.70
22828;BMP180;11580;52.562;13.418;2023-05-06T00:33:17;100868.00;;;14.70
22828;BMP180;11580;52.562;13.418;2023-05-06T00:35:45;100866.00;;;14.60
22828;BMP180;11580;52.562;13.418;2023-05-06T00:38:13;100854.00;;;14.60
22828;BMP180;11580;52.562;13.418;2023-05-06T00:40:41;100857.00;;;14.50
22828;BMP180;11580;52.562;13.418;2023-05-06T00:43:09;100849.00;;;14.50
22828;BMP180;11580;52.562;13.418;2023-05-06T00:45:37;100849.00;;;14.50
22828;BMP180;11580;52.562;13.418;2023-05-06T00:48:06;100853.00;;;14.50
22828;BMP180;11580;52.562;13.418;2023-05-06T00:50:34;100848.00;;;14.40
22828;BMP180;11580;52.562;13.418;2023-05-06T00:53:06;100844.00;;;14.40
22828;BMP180;11580;52.562;13.418;2023-05-06T00:55:34;100831.00;;;14.40
22828;BMP180;11580;52.562;13.418;2023-05-06T00:58:02;100836.00;;;14.30
22828;BMP180;11580;52.562;13.418;2023-05-06T01:00:30;100829.00;;;14.30
22828;BMP180;11580;52.562;13.418;2023-05-06T01:02:57;100829.00;;;14.20
22828;BMP180;11580;52.562;13.418;2023-05-06T01:05:33;100820.00;;;14.10
22828;BMP180;11580;52.562;13.418;2023-05-06T01:08:11;100815.00;;;14.00
22828;BMP180;11580;52.562;13.418;2023-05-06T01:10:49;100819.00;;;13.90
22828;BMP180;11580;52.562;13.418;2023-05-06T01:13:29;100816.00;;;13.90
22828;BMP180;11580;52.562;13.418;2023-05-06T01:16:00;100801.00;;;13.70
22828;BMP180;11580;52.562;13.418;2023-05-06T01:18:31;100802.00;;;13.60
22828;BMP180;11580;52.562;13.418;2023-05-06T01:20:59;100797.00;;;13.60
22828;BMP180;11580;52.562;13.418;2023-05-06T01:23:28;100797.00;;;13.40
22828;BMP180;11580;52.562;13.418;2023-05-06T01:25:55;100801.00;;;13.40
22828;BMP180;11580;52.562;13.418;2023-05-06T01:28:22;100794.00;;;13.20
22828;BMP180;11580;52.562;13.418;2023-05-06T01:30:58;100797.00;;;13.20
22828;BMP180;11580;52.562;13.418;2023-05-06T01:33:36;100796.00;;;13.10
22828;BMP180;11580;52.562;13.418;2023-05-06T01:36:14;100797.00;;;13.00
22828;BMP180;11580;52.562;13.418;2023-05-06T01:38:52;100795.00;;;12.90
22828;BMP180;11580;52.562;13.418;2023-05-06T01:41:23;100798.00;;;12.90
22828;BMP180;11580;52.562;13.418;2023-05-06T01:43:52;100793.00;;;12.80
22828;BMP180;11580;52.562;13.418;2023-05-06T01:46:22;100785.00;;;12.80
22828;BMP180;11580;52.562;13.418;2023-05-06T01:48:54;100794.00;;;12.80
22828;BMP180;11580;52.562;13.418;2023-05-06T01:51:23;100786.00;;;12.70
22828;BMP180;11580;52.562;13.418;2023-05-06T01:53:51;100779.00;;;12.70
22828;BMP180;11580;52.562;13.418;2023-05-06T01:56:19;100790.00;;;12.70
22828;BMP180;11580;52.562;13.418;2023-05-06T01:58:46;100787.00;;;12.60
22828;BMP180;11580;52.562;13.418;2023-05-06T02:01:14;100777.00;;;12.60
22828;BMP180;11580;52.562;13.418;2023-05-06T02:03:41;100785.00;;;12.60
22828;BMP180;11580;52.562;13.418;2023-05-06T02:06:08;100776.00;;;12.50
22828;BMP180;11580;52.562;13.418;2023-05-06T02:08:38;100774.00;;;12.50
22828;BMP180;11580;52.562;13.418;2023-05-06T02:11:08;100782.00;;;12.40
22828;BMP180;11580;52.562;13.418;2023-05-06T02:13:35;100735.00;;;12.40
22828;BMP180;11580;52.562;13.418;2023-05-06T02:16:04;100770.00;;;12.40
22828;BMP180;11580;52.562;13.418;2023-05-06T02:18:31;100771.00;;;12.30
22828;BMP180;11580;52.562;13.418;2023-05-06T02:20:59;100761.00;;;12.20
22828;BMP180;11580;52.562;13.418;2023-05-06T02:23:26;100779.00;;;12.20
22828;BMP180;11580;52.562;13.418;2023-05-06T02:25:53;100769.00;;;12.20
22828;BMP180;11580;52.562;13.418;2023-05-06T02:28:24;100771.00;;;12.10
22828;BMP180;11580;52.562;13.418;2023-05-06T02:30:54;100777.00;;;12.10
22828;BMP180;11580;52.562;13.418;2023-05-06T02:33:22;100786.00;;;12.10
22828;BMP180;11580;52.562;13.418;2023-05-06T02:35:50;100797.00;;;12.10
22828;BMP180;11580;52.562;13.418;2023-05-06T02:38:17;100785.00;;;12.10
22828;BMP180;11580;52.562;13.418;2023-05-06T02:40:45;100769.00;;;12.00
22828;BMP180;11580;52.562;13.418;2023-05-06T02:43:12;100769.00;;;12.00
22828;BMP180;11580;52.562;13.418;2023-05-06T02:45:40;100768.00;;;12.00
22828;BMP180;11580;52.562;13.418;2023-05-06T02:48:08;100764.00;;;12.00
22828;BMP180;11580;52.562;13.418;2023-05-06T02:50:36;100773.00;;;11.90
22828;BMP180;11580;52.562;13.418;2023-05-06T02:53:03;100775.00;;;11.90
22828;BMP180;11580;52.562;13.418;2023-05-06T02:55:30;100783.00;;;11.90
22828;BMP180;11580;52.562;13.418;2023-05-06T02:57:58;100770.00;;;11.90
22828;BMP180;11580;52.562;13.418;2023-05-06T03:00:25;100758.00;;;11.90
22828;BMP180;11580;52.562;13.418;2023-05-06T03:02:53;100766.00;;;11.90
22828;BMP180;11580;52.562;13.418;2023-05-06T03:05:20;100764.00;;;11.90
22828;BMP180;11580;52.562;13.418;2023-05-06T03:07:48;100755.00;;;11.90
22828;BMP180;11580;52.562;13.418;2023-05-06T03:10:15;100747.00;;;11.90
22828;BMP180;11580;52.562;13.418;2023-05-06T03:12:42;100751.00;;;11.90
22828;BMP180;11580;52.562;13.418;2023-05-06T03:15:10;100752.00;;;11.90
22828;BMP180;11580;52.562;13.418;2023-05-06T03:17:38;100757.00;;;11.90
22828;BMP180;11580;52.562;13.418;2023-05-06T03:20:09;100744.00;;;11.90
22828;BMP180;11580;52.562;13.418;2023-05-06T03:22:39;100745.00;;;11.90
22828;BMP180;11580;52.562;13.418;2023-05-06T03:25:08;100759.00;;;11.90
22828;BMP180;11580;52.562;13.418;2023-05-06T03:27:37;100767.00;;;11.80
22828;BMP180;11580;52.562;13.418;2023-05-06T03:30:12;100772.00;;;11.90
22828;BMP180;11580;52.562;13.418;2023-05-06T03:32:39;100771.00;;;11.90
22828;BMP180;11580;52.562;13.418;2023-05-06T03:35:11;100773.00;;;12.00
22828;BMP180;11580;52.562;13.418;2023-05-06T03:37:41;100773.00;;;12.00
22828;BMP180;11580;52.562;13.418;2023-05-06T03:40:09;100765.00;;;12.00
22828;BMP180;11580;52.562;13.418;2023-05-06T03:42:36;100772.00;;;12.00
22828;BMP180;11580;52.562;13.418;2023-05-06T03:45:05;100755.00;;;12.00
22828;BMP180;11580;52.562;13.418;2023-05-06T03:47:33;100760.00;;;12.00
22828;BMP180;11580;52.562;13.418;2023-05-06T03:50:03;100759.00;;;12.00
22828;BMP180;11580;52.562;13.418;2023-05-06T03:52:33;100754.00;;;12.00
22828;BMP180;11580;52.562;13.418;2023-05-06T03:55:01;100755.00;;;12.00
22828;BMP180;11580;52.562;13.418;2023-05-06T03:57:30;100755.00;;;12.00
22828;BMP180;11580;52.562;13.418;2023-05-06T03:59:57;100753.00;;;12.00
22828;BMP180;11580;52.562;13.418;2023-05-06T04:02:26;100746.00;;;11.90
22828;BMP180;11580;52.562;13.418;2023-05-06T04:04:55;100743.00;;;11.90
22828;BMP180;11580;52.562;13.418;2023-05-06T04:07:22;100736.00;;;11.90
22828;BMP180;11580;52.562;13.418;2023-05-06T04:09:51;100739.00;;;11.90
22828;BMP180;11580;52.562;13.418;2023-05-06T04:12:18;100732.00;;;11.80
22828;BMP180;11580;52.562;13.418;2023-05-06T04:14:47;100742.00;;;11.80
22828;BMP180;11580;52.562;13.418;2023-05-06T04:17:14;100747.00;;;11.80
22828;BMP180;11580;52.562;13.418;2023-05-06T04:19:42;100750.00;;;11.80
22828;BMP180;11580;52.562;13.418;2023-05-06T04:22:10;100750.00;;;11.80
22828;BMP180;11580;52.562;13.418;2023-05-06T04:24:37;100757.00;;;11.80
22828;BMP180;11580;52.562;13.418;2023-05-06T04:27:08;100756.00;;;11.80
22828;BMP180;11580;52.562;13.418;2023-05-06T04:29:37;100755.00;;;11.80
22828;BMP180;11580;52.562;13.418;2023-05-06T04:32:04;100760.00;;;11.90
22828;BMP180;11580;52.562;13.418;2023-05-06T04:34:34;100754.00;;;11.90
22828;BMP180;11580;52.562;13.418;2023-05-06T04:37:03;100756.00;;;11.90
22828;BMP180;11580;52.562;13.418;2023-05-06T04:39:40;100758.00;;;12.00
22828;BMP180;11580;52.562;13.418;2023-05-06T04:42:10;100762.00;;;12.00
22828;BMP180;11580;52.562;13.418;2023-05-06T04:44:45;100766.00;;;12.00
22828;BMP180;11580;52.562;13.418;2023-05-06T04:47:12;100769.00;;;12.00
22828;BMP180;11580;52.562;13.418;2023-05-06T04:49:43;100774.00;;;12.10
22828;BMP180;11580;52.562;13.418;2023-05-06T04:52:11;100775.00;;;12.10
22828;BMP180;11580;52.562;13.418;2023-05-06T04:54:38;100775.00;;;12.10
22828;BMP180;11580;52.562;13.418;2023-05-06T04:57:06;100771.00;;;12.20
22828;BMP180;11580;52.562;13.418;2023-05-06T04:59:37;100776.00;;;12.20
22828;BMP180;11580;52.562;13.418;2023-05-06T05:02:04;100781.00;;;12.20
22828;BMP180;11580;52.562;13.418;2023-05-06T05:04:31;100789.00;;;12.20
22828;BMP180;11580;52.562;13.418;2023-05-06T05:06:59;100789.00;;;12.20
22828;BMP180;11580;52.562;13.418;2023-05-06T05:09:27;100797.00;;;12.20
22828;BMP180;11580;52.562;13.418;2023-05-06T05:11:54;100783.00;;;12.30
22828;BMP180;11580;52.562;13.418;2023-05-06T05:14:21;100797.00;;;12.30
22828;BMP180;11580;52.562;13.418;2023-05-06T05:16:50;100796.00;;;12.30
22828;BMP180;11580;52.562;13.418;2023-05-06T05:19:17;100799.00;;;12.30
22828;BMP180;11580;52.562;13.418;2023-05-06T05:21:44;100799.00;;;12.30
22828;BMP180;11580;52.562;13.418;2023-05-06T05:24:12;100799.00;;;12.30
22828;BMP180;11580;52.562;13.418;2023-05-06T05:26:40;100802.00;;;12.30
22828;BMP180;11580;52.562;13.418;2023-05-06T05:29:07;100802.00;;;12.30
22828;BMP180;11580;52.562;13.418;2023-05-06T05:31:36;100802.00;;;12.30
22828;BMP180;11580;52.562;13.418;2023-05-06T05:34:05;100805.00;;;12.40
22828;BMP180;11580;52.562;13.418;2023-05-06T05:36:32;100802.00;;;12.40
22828;BMP180;11580;52.562;13.418;2023-05-06T05:39:03;100798.00;;;12.40
22828;BMP180;11580;52.562;13.418;2023-05-06T05:41:33;100808.00;;;12.40
22828;BMP180;11580;52.562;13.418;2023-05-06T05:44:00;100810.00;;;12.50
22828;BMP180;11580;52.562;13.418;2023-05-06T05:46:28;100805.00;;;12.50
22828;BMP180;11580;52.562;13.418;2023-05-06T05:48:56;100803.00;;;12.50
22828;BMP180;11580;52.562;13.418;2023-05-06T05:51:25;100807.00;;;12.50
22828;BMP180;11580;52.562;13.418;2023-05-06T05:53:53;100802.00;;;12.50
22828;BMP180;11580;52.562;13.418;2023-05-06T05:56:23;100806.00;;;12.50
22828;BMP180;11580;52.562;13.418;2023-05-06T05:58:50;100802.00;;;12.50
22828;BMP180;11580;52.562;13.418;2023-05-06T06:01:17;100804.00;;;12.50
22828;BMP180;11580;52.562;13.418;2023-05-06T06:03:45;100807.00;;;12.50
22828;BMP180;11580;52.562;13.418;2023-05-06T06:06:13;100804.00;;;12.60
22828;BMP180;11580;52.562;13.418;2023-05-06T06:08:42;100817.00;;;12.60
22828;BMP180;11580;52.562;13.418;2023-05-06T06:11:10;100811.00;;;12.60
22828;BMP180;11580;52.562;13.418;2023-05-06T06:13:39;100818.00;;;12.60
22828;BMP180;11580;52.562;13.418;2023-05-06T06:16:07;100824.00;;;12.60
22828;BMP180;11580;52.562;13.418;2023-05-06T06:18:34;100817.00;;;12.60
22828;BMP180;11580;52.562;13.418;2023-05-06T06:21:02;100820.00;;;12.60
22828;BMP180;11580;52.562;13.418;2023-05-06T06:23:29;100828.00;;;12.70
22828;BMP180;11580;52.562;13.418;2023-05-06T06:25:58;100832.00;;;12.70
22828;BMP180;11580;52.562;13.418;2023-05-06T06:28:26;100833.00;;;12.70
22828;BMP180;11580;52.562;13.418;2023-05-06T06:30:53;100829.00;;;12.70
22828;BMP180;11580;52.562;13.418;2023-05-06T06:33:20;100833.00;;;12.80
22828;BMP180;11580;52.562;13.418;2023-05-06T06:35:47;100832.00;;;12.70
22828;BMP180;11580;52.562;13.418;2023-05-06T06:38:15;100832.00;;;12.70
22828;BMP180;11580;52.562;13.418;2023-05-06T06:40:42;100823.00;;;12.70
22828;BMP180;11580;52.562;13.418;2023-05-06T06:43:10;100828.00;;;12.70
22828;BMP180;11580;52.562;13.418;2023-05-06T06:45:53;100830.00;;;12.70
22828;BMP180;11580;52.562;13.418;2023-05-06T06:48:21;100819.00;;;12.60
22828;BMP180;11580;52.562;13.418;2023-05-06T06:50:48;100827.00;;;12.60
22828;BMP180;11580;52.562;13.418;2023-05-06T06:53:15;100821.00;;;12.60
22828;BMP180;11580;52.562;13.418;2023-05-06T06:55:43;100828.00;;;12.60
22828;BMP180;11580;52.562;13.418;2023-05-06T06:58:11;100817.00;;;12.60
22828;BMP180;11580;52.562;13.418;2023-05-06T07:00:38;100830.00;;;12.60
22828;BMP180;11580;52.562;13.418;2023-05-06T07:03:05;100833.00;;;12.60
22828;BMP180;11580;52.562;13.418;2023-05-06T07:05:33;100835.00;;;12.60
22828;BMP180;11580;52.562;13.418;2023-05-06T07:08:00;100834.00;;;12.60
22828;BMP180;11580;52.562;13.418;2023-05-06T07:10:27;100826.00;;;12.60
22828;BMP180;11580;52.562;13.418;2023-05-06T07:12:54;100833.00;;;12.60
22828;BMP180;11580;52.562;13.418;2023-05-06T07:15:24;100837.00;;;12.60
22828;BMP180;11580;52.562;13.418;2023-05-06T07:17:51;100835.00;;;12.50
22828;BMP180;11580;52.562;13.418;2023-05-06T07:20:18;100830.00;;;12.40
22828;BMP180;11580;52.562;13.418;2023-05-06T07:22:46;100838.00;;;12.40
22828;BMP180;11580;52.562;13.418;2023-05-06T07:25:13;100829.00;;;12.30
22828;BMP180;11580;52.562;13.418;2023-05-06T07:27:40;100830.00;;;12.30
22828;BMP180;11580;52.562;13.418;2023-05-06T07:30:08;100830.00;;;12.30
22828;BMP180;11580;52.562;13.418;2023-05-06T07:32:37;100835.00;;;12.40
22828;BMP180;11580;52.562;13.418;2023-05-06T07:35:07;100839.00;;;12.40
22828;BMP180;11580;52.562;13.418;2023-05-06T07:37:34;100831.00;;;12.40
22828;BMP180;11580;52.562;13.418;2023-05-06T07:40:02;100838.00;;;12.40
22828;BMP180;11580;52.562;13.418;2023-05-06T07:42:29;100834.00;;;12.40
22828;BMP180;11580;52.562;13.418;2023-05-06T07:44:56;100847.00;;;12.40
22828;BMP180;11580;52.562;13.418;2023-05-06T07:47:29;100843.00;;;12.40
22828;BMP180;11580;52.562;13.418;2023-05-06T07:49:58;100852.00;;;12.40
22828;BMP180;11580;52.562;13.418;2023-05-06T07:52:26;100843.00;;;12.40
22828;BMP180;11580;52.562;13.418;2023-05-06T07:54:53;100837.00;;;12.40
22828;BMP180;11580;52.562;13.418;2023-05-06T07:57:20;100845.00;;;12.30
22828;BMP180;11580;52.562;13.418;2023-05-06T07:59:49;100834.00;;;12.30
22828;BMP180;11580;52.562;13.418;2023-05-06T08:02:17;100839.00;;;12.20
22828;BMP180;11580;52.562;13.418;2023-05-06T08:04:44;100847.00;;;12.30
22828;BMP180;11580;52.562;13.418;2023-05-06T08:07:13;100850.00;;;12.30
22828;BMP180;11580;52.562;13.418;2023-05-06T08:09:40;100845.00;;;12.30
22828;BMP180;11580;52.562;13.418;2023-05-06T08:12:07;100862.00;;;12.30
22828;BMP180;11580;52.562;13.418;2023-05-06T08:14:35;100860.00;;;12.30
22828;BMP180;11580;52.562;13.418;2023-05-06T08:17:02;100863.00;;;12.40
22828;BMP180;11580;52.562;13.418;2023-05-06T08:19:29;100864.00;;;12.40
22828;BMP180;11580;52.562;13.418;2023-05-06T08:21:56;100856.00;;;12.40
22828;BMP180;11580;52.562;13.418;2023-05-06T08:24:25;100865.00;;;12.40
22828;BMP180;11580;52.562;13.418;2023-05-06T08:26:52;100864.00;;;12.40
22828;BMP180;11580;52.562;13.418;2023-05-06T08:29:19;100858.00;;;12.50
22828;BMP180;11580;52.562;13.418;2023-05-06T08:31:46;100866.00;;;12.50
22828;BMP180;11580;52.562;13.418;2023-05-06T08:34:13;100871.00;;;12.50
22828;BMP180;11580;52.562;13.418;2023-05-06T08:36:43;100872.00;;;12.50
22828;BMP180;11580;52.562;13.418;2023-05-06T08:39:10;100873.00;;;12.60
22828;BMP180;11580;52.562;13.418;2023-05-06T08:41:46;100875.00;;;12.70
22828;BMP180;11580;52.562;13.418;2023-05-06T08:44:17;100881.00;;;12.70
22828;BMP180;11580;52.562;13.418;2023-05-06T08:46:45;100890.00;;;12.70
22828;BMP180;11580;52.562;13.418;2023-05-06T08:49:12;100888.00;;;12.80
22828;BMP180;11580;52.562;13.418;2023-05-06T08:51:42;100882.00;;;12.80
22828;BMP180;11580;52.562;13.418;2023-05-06T08:54:11;100890.00;;;12.90
22828;BMP180;11580;52.562;13.418;2023-05-06T08:56:44;100888.00;;;13.00
22828;BMP180;11580;52.562;13.418;2023-05-06T08:59:12;100896.00;;;13.00
22828;BMP180;11580;52.562;13.418;2023-05-06T09:01:39;100897.00;;;13.00
22828;BMP180;11580;52.562;13.418;2023-05-06T09:04:07;100895.00;;;13.10
22828;BMP180;11580;52.562;13.418;2023-05-06T09:06:34;100901.00;;;13.10
22828;BMP180;11580;52.562;13.418;2023-05-06T09:09:01;100912.00;;;13.20
22828;BMP180;11580;52.562;13.418;2023-05-06T09:11:29;100913.00;;;13.20
22828;BMP180;11580;52.562;13.418;2023-05-06T09:14:12;100917.00;;;13.20
22828;BMP180;11580;52.562;13.418;2023-05-06T09:16:42;100912.00;;;13.20
22828;BMP180;11580;52.562;13.418;2023-05-06T09:19:10;100900.00;;;13.20
22828;BMP180;11580;52.562;13.418;2023-05-06T09:21:40;100914.00;;;13.20
22828;BMP180;11580;52.562;13.418;2023-05-06T09:24:09;100914.00;;;13.20
22828;BMP180;11580;52.562;13.418;2023-05-06T09:26:39;100917.00;;;13.20
22828;BMP180;11580;52.562;13.418;2023-05-06T09:29:07;100919.00;;;13.20
22828;BMP180;11580;52.562;13.418;2023-05-06T09:31:40;100910.00;;;13.20
22828;BMP180;11580;52.562;13.418;2023-05-06T09:34:08;100908.00;;;13.20
22828;BMP180;11580;52.562;13.418;2023-05-06T09:36:36;100917.00;;;13.30
22828;BMP180;11580;52.562;13.418;2023-05-06T09:39:04;100916.00;;;13.30
22828;BMP180;11580;52.562;13.418;2023-05-06T09:41:32;100917.00;;;13.30
22828;BMP180;11580;52.562;13.418;2023-05-06T09:43:59;100918.00;;;13.30
22828;BMP180;11580;52.562;13.418;2023-05-06T09:46:27;100930.00;;;13.30
22828;BMP180;11580;52.562;13.418;2023-05-06T09:48:56;100928.00;;;13.40
22828;BMP180;11580;52.562;13.418;2023-05-06T09:51:25;100931.00;;;13.40
22828;BMP180;11580;52.562;13.418;2023-05-06T09:53:55;100924.00;;;13.40
22828;BMP180;11580;52.562;13.418;2023-05-06T09:56:23;100920.00;;;13.50
22828;BMP180;11580;52.562;13.418;2023-05-06T09:58:53;100927.00;;;13.50
22828;BMP180;11580;52.562;13.418;2023-05-06T10:01:22;100930.00;;;13.50
22828;BMP180;11580;52.562;13.418;2023-05-06T10:03:52;100926.00;;;13.60
22828;BMP180;11580;52.562;13.418;2023-05-06T10:06:23;100932.00;;;13.60
22828;BMP180;11580;52.562;13.418;2023-05-06T10:08:53;100935.00;;;13.70
22828;BMP180;11580;52.562;13.418;2023-05-06T10:11:21;100937.00;;;13.70
22828;BMP180;11580;52.562;13.418;2023-05-06T10:13:49;100936.00;;;13.80
22828;BMP180;11580;52.562;13.418;2023-05-06T10:16:18;100937.00;;;13.80
22828;BMP180;11580;52.562;13.418;2023-05-06T10:18:46;100944.00;;;13.80
22828;BMP180;11580;52.562;13.418;2023-05-06T10:21:21;100949.00;;;13.80
22828;BMP180;11580;52.562;13.418;2023-05-06T10:23:59;100956.00;;;13.90
22828;BMP180;11580;52.562;13.418;2023-05-06T10:26:35;100959.00;;;13.90
22828;BMP180;11580;52.562;13.418;2023-05-06T10:29:08;100952.00;;;13.90
22828;BMP180;11580;52.562;13.418;2023-05-06T10:31:39;100954.00;;;13.90
22828;BMP180;11580;52.562;13.418;2023-05-06T10:34:09;100957.00;;;14.00
22828;BMP180;11580;52.562;13.418;2023-05-06T10:36:39;100954.00;;;14.00
22828;BMP180;11580;52.562;13.418;2023-05-06T10:39:09;100948.00;;;14.00
22828;BMP180;11580;52.562;13.418;2023-05-06T10:41:39;100950.00;;;13.90
22828;BMP180;11580;52.562;13.418;2023-05-06T10:44:06;100949.00;;;13.90
22828;BMP180;11580;52.562;13.418;2023-05-06T10:46:56;100942.00;;;13.90
22828;BMP180;11580;52.562;13.418;2023-05-06T10:49:25;100949.00;;;13.90
22828;BMP180;11580;52.562;13.418;2023-05-06T10:52:12;100954.00;;;14.00
22828;BMP180;11580;52.562;13.418;2023-05-06T10:54:50;100956.00;;;14.00
22828;BMP180;11580;52.562;13.418;2023-05-06T10:57:17;100958.00;;;14.10
22828;BMP180;11580;52.562;13.418;2023-05-06T10:59:47;100957.00;;;14.10
22828;BMP180;11580;52.562;13.418;2023-05-06T11:02:18;100957.00;;;14.10
22828;BMP180;11580;52.562;13.418;2023-05-06T11:04:50;100971.00;;;14.10
22828;BMP180;11580;52.562;13.418;2023-05-06T11:07:23;100963.00;;;14.10
22828;BMP180;11580;52.562;13.418;2023-05-06T11:09:55;100965.00;;;14.10
22828;BMP180;11580;52.562;13.418;2023-05-06T11:12:46;100961.00;;;14.20
22828;BMP180;11580;52.562;13.418;2023-05-06T11:15:23;100966.00;;;14.20
22828;BMP180;11580;52.562;13.418;2023-05-06T11:17:53;100973.00;;;14.10
22828;BMP180;11580;52.562;13.418;2023-05-06T11:20:23;100970.00;;;14.10
22828;BMP180;11580;52.562;13.418;2023-05-06T11:22:53;100974.00;;;14.00
22828;BMP180;11580;52.562;13.418;2023-05-06T11:25:39;100974.00;;;13.90
22828;BMP180;11580;52.562;13.418;2023-05-06T11:28:08;100981.00;;;13.90
22828;BMP180;11580;52.562;13.418;2023-05-06T11:30:40;100981.00;;;13.90
22828;BMP180;11580;52.562;13.418;2023-05-06T11:33:11;100976.00;;;13.90
22828;BMP180;11580;52.562;13.418;2023-05-06T11:35:39;100977.00;;;13.90
22828;BMP180;11580;52.562;13.418;2023-05-06T11:38:08;100986.00;;;13.90
22828;BMP180;11580;52.562;13.418;2023-05-06T11:40:35;100987.00;;;13.90
22828;BMP180;11580;52.562;13.418;2023-05-06T11:43:10;100980.00;;;13.90
22828;BMP180;11580;52.562;13.418;2023-05-06T11:45:42;100993.00;;;14.00
22828;BMP180;11580;52.562;13.418;2023-05-06T11:48:12;100991.00;;;14.00
22828;BMP180;11580;52.562;13.418;2023-05-06T11:50:44;100998.00;;;13.90
22828;BMP180;11580;52.562;13.418;2023-05-06T11:53:15;100996.00;;;13.90
22828;BMP180;11580;52.562;13.418;2023-05-06T11:55:44;100994.00;;;13.90
22828;BMP180;11580;52.562;13.418;2023-05-06T11:58:13;100979.00;;;13.90
22828;BMP180;11580;52.562;13.418;2023-05-06T12:00:48;101012.00;;;13.80
22828;BMP180;11580;52.562;13.418;2023-05-06T12:03:16;101014.00;;;13.80
22828;BMP180;11580;52.562;13.418;2023-05-06T12:05:45;101019.00;;;13.90
22828;BMP180;11580;52.562;13.418;2023-05-06T12:08:16;101013.00;;;13.90
22828;BMP180;11580;52.562;13.418;2023-05-06T12:10:46;101019.00;;;13.90
22828;BMP180;11580;52.562;13.418;2023-05-06T12:13:13;101016.00;;;13.90
22828;BMP180;11580;52.562;13.418;2023-05-06T12:15:42;101011.00;;;13.90
22828;BMP180;11580;52.562;13.418;2023-05-06T12:18:11;101023.00;;;14.00
22828;BMP180;11580;52.562;13.418;2023-05-06T12:20:38;101030.00;;;14.00
22828;BMP180;11580;52.562;13.418;2023-05-06T12:23:07;101028.00;;;14.00
22828;BMP180;11580;52.562;13.418;2023-05-06T12:25:36;101033.00;;;14.00
22828;BMP180;11580;52.562;13.418;2023-05-06T12:28:12;101043.00;;;14.00
22828;BMP180;11580;52.562;13.418;2023-05-06T12:30:40;101044.00;;;14.10
22828;BMP180;11580;52.562;13.418;2023-05-06T12:33:08;101045.00;;;14.20
22828;BMP180;11580;52.562;13.418;2023-05-06T12:35:37;101051.00;;;14.20
22828;BMP180;11580;52.562;13.418;2023-05-06T12:38:09;101054.00;;;14.30
22828;BMP180;11580;52.562;13.418;2023-05-06T12:40:39;101056.00;;;14.40
22828;BMP180;11580;52.562;13.418;2023-05-06T12:43:07;101055.00;;;14.40
22828;BMP180;11580;52.562;13.418;2023-05-06T12:45:35;101054.00;;;14.40
22828;BMP180;11580;52.562;13.418;2023-05-06T12:48:04;101060.00;;;14.40
22828;BMP180;11580;52.562;13.418;2023-05-06T12:50:34;101067.00;;;14.40
22828;BMP180;11580;52.562;13.418;2023-05-06T12:53:01;101062.00;;;14.40
22828;BMP180;11580;52.562;13.418;2023-05-06T12:55:30;101071.00;;;14.30
22828;BMP180;11580;52.562;13.418;2023-05-06T12:57:59;101075.00;;;14.30
22828;BMP180;11580;52.562;13.418;2023-05-06T13:00:26;101076.00;;;14.20
22828;BMP180;11580;52.562;13.418;2023-05-06T13:02:53;101085.00;;;14.10
22828;BMP180;11580;52.562;13.418;2023-05-06T13:05:20;101082.00;;;14.10
22828;BMP180;11580;52.562;13.418;2023-05-06T13:07:48;101083.00;;;14.00
22828;BMP180;11580;52.562;13.418;2023-05-06T13:10:16;101091.00;;;14.00
22828;BMP180;11580;52.562;13.418;2023-05-06T13:12:43;101085.00;;;14.00
22828;BMP180;11580;52.562;13.418;2023-05-06T13:15:11;101083.00;;;14.00
22828;BMP180;11580;52.562;13.418;2023-05-06T13:17:38;101085.00;;;14.10
22828;BMP180;11580;52.562;13.418;2023-05-06T13:20:07;101077.00;;;14.10
22828;BMP180;11580;52.562;13.418;2023-05-06T13:22:34;101076.00;;;14.20
22828;BMP180;11580;52.562;13.418;2023-05-06T13:25:02;101077.00;;;14.20
22828;BMP180;11580;52.562;13.418;2023-05-06T13:27:29;101076.00;;;14.20
22828;BMP180;11580;52.562;13.418;2023-05-06T13:29:57;101073.00;;;14.30
22828;BMP180;11580;52.562;13.418;2023-05-06T13:32:25;101084.00;;;14.30
22828;BMP180;11580;52.562;13.418;2023-05-06T13:34:52;101078.00;;;14.30
22828;BMP180;11580;52.562;13.418;2023-05-06T13:37:20;101082.00;;;14.30
22828;BMP180;11580;52.562;13.418;2023-05-06T13:39:47;101084.00;;;14.40
22828;BMP180;11580;52.562;13.418;2023-05-06T13:42:14;101072.00;;;14.40
22828;BMP180;11580;52.562;13.418;2023-05-06T13:44:41;101075.00;;;14.40
22828;BMP180;11580;52.562;13.418;2023-05-06T13:47:08;101078.00;;;14.50
22828;BMP180;11580;52.562;13.418;2023-05-06T13:49:37;101080.00;;;14.60
22828;BMP180;11580;52.562;13.418;2023-05-06T13:52:04;101096.00;;;14.60
22828;BMP180;11580;52.562;13.418;2023-05-06T13:54:31;101074.00;;;14.70